sensor_id;sensor_type;location;lat;lon;timestamp;P1;durP1;ratioP1;P2;durP2;ratioP2
29550;SDS011;16488;52.396;10.696;2022-08-06T00:01:08;7.30;;;1.70;;
29550;SDS011;16488;52.396;10.696;2022-08-06T00:03:34;8.80;;;2.17;;
29550;SDS011;16488;52.396;10.696;2022-08-06T00:05:59;2.13;;;1.63;;
29550;SDS011;16488;52.396;10.696;2022-08-06T00:08:25;2.90;;;1.70;;
29550;SDS011;16488;52.396;10.696;2022-08-06T00:10:50;3.80;;;1.77;;
29550;SDS011;16488;52.396;10.696;2022-08-06T00:13:16;2.50;;;1.67;;
29550;SDS011;16488;52.396;10.696;2022-08-06T00:15:43;3.33;;;1.80;;
29550;SDS011;16488;52.396;10.696;2022-08-06T00:18:09;1.88;;;1.70;;
29550;SDS011;16488;52.396;10.696;2022-08-06T00:20:35;4.57;;;1.67;;
29550;SDS011;16488;52.396;10.696;2022-08-06T00:23:01;5.78;;;2.00;;
29550;SDS011;16488;52.396;10.696;2022-08-06T00:25:27;1.65;;;1.55;;
29550;SDS011;16488;52.396;10.696;2022-08-06T00:27:53;4.03;;;2.05;;
29550;SDS011;16488;52.396;10.696;2022-08-06T00:30:19;3.65;;;1.65;;
29550;SDS011;16488;52.396;10.696;2022-08-06T00:32:45;4.05;;;2.13;;
29550;SDS011;16488;52.396;10.696;2022-08-06T00:35:11;3.25;;;1.98;;
29550;SDS011;16488;52.396;10.696;2022-08-06T00:37:36;6.15;;;1.92;;
29550;SDS011;16488;52.396;10.696;2022-08-06T00:40:02;5.82;;;1.90;;
29550;SDS011;16488;52.396;10.696;2022-08-06T00:42:28;4.82;;;2.33;;
29550;SDS011;16488;52.396;10.696;2022-08-06T00:44:55;2.50;;;2.20;;
29550;SDS011;16488;52.396;10.696;2022-08-06T00:47:20;3.78;;;2.25;;
29550;SDS011;16488;52.396;10.696;2022-08-06T00:49:46;3.05;;;2.15;;
29550;SDS011;16488;52.396;10.696;2022-08-06T00:52:12;2.58;;;1.73;;
29550;SDS011;16488;52.396;10.696;2022-08-06T00:54:37;5.53;;;1.63;;
29550;SDS011;16488;52.396;10.696;2022-08-06T00:57:04;4.23;;;1.90;;
29550;SDS011;16488;52.396;10.696;2022-08-06T00:59:30;2.58;;;2.15;;
29550;SDS011;16488;52.396;10.696;2022-08-06T01:01:56;7.20;;;1.80;;
29550;SDS011;16488;52.396;10.696;2022-08-06T01:04:21;2.67;;;1.60;;
29550;SDS011;16488;52.396;10.696;2022-08-06T01:06:47;7.67;;;1.90;;
29550;SDS011;16488;52.396;10.696;2022-08-06T01:09:13;6.93;;;1.83;;
29550;SDS011;16488;52.396;10.696;2022-08-06T01:11:38;3.17;;;1.80;;
29550;SDS011;16488;52.396;10.696;2022-08-06T01:14:04;1.90;;;1.65;;
29550;SDS011;16488;52.396;10.696;2022-08-06T01:21:44;2.80;;;1.75;;
29550;SDS011;16488;52.396;10.696;2022-08-06T01:29:54;3.40;;;1.23;;
29550;SDS011;16488;52.396;10.696;2022-08-06T01:32:29;4.50;;;1.38;;
29550;SDS011;16488;52.396;10.696;2022-08-06T01:37:30;3.80;;;1.42;;
29550;SDS011;16488;52.396;10.696;2022-08-06T01:40:06;6.32;;;1.30;;
29550;SDS011;16488;52.396;10.696;2022-08-06T01:42:36;2.40;;;1.33;;
29550;SDS011;16488;52.396;10.696;2022-08-06T01:45:04;1.95;;;1.35;;
29550;SDS011;16488;52.396;10.696;2022-08-06T01:47:34;4.63;;;1.67;;
29550;SDS011;16488;52.396;10.696;2022-08-06T01:50:02;5.03;;;1.35;;
29550;SDS011;16488;52.396;10.696;2022-08-06T01:52:35;6.80;;;1.80;;
29550;SDS011;16488;52.396;10.696;2022-08-06T01:55:05;2.85;;;1.77;;
29550;SDS011;16488;52.396;10.696;2022-08-06T01:57:33;12.43;;;1.65;;
29550;SDS011;16488;52.396;10.696;2022-08-06T02:00:03;2.80;;;1.50;;
29550;SDS011;16488;52.396;10.696;2022-08-06T02:02:30;4.03;;;1.70;;
29550;SDS011;16488;52.396;10.696;2022-08-06T02:05:00;5.38;;;1.85;;
29550;SDS011;16488;52.396;10.696;2022-08-06T02:07:27;4.25;;;2.20;;
29550;SDS011;16488;52.396;10.696;2022-08-06T02:09:58;6.28;;;1.63;;
29550;SDS011;16488;52.396;10.696;2022-08-06T02:12:25;1.83;;;1.30;;
29550;SDS011;16488;52.396;10.696;2022-08-06T02:14:54;5.68;;;2.60;;
29550;SDS011;16488;52.396;10.696;2022-08-06T02:17:28;2.25;;;1.30;;
29550;SDS011;16488;52.396;10.696;2022-08-06T02:19:56;4.70;;;1.38;;
29550;SDS011;16488;52.396;10.696;2022-08-06T02:22:28;3.53;;;1.30;;
29550;SDS011;16488;52.396;10.696;2022-08-06T02:24:57;2.55;;;1.50;;
29550;SDS011;16488;52.396;10.696;2022-08-06T02:27:27;4.70;;;1.75;;
29550;SDS011;16488;52.396;10.696;2022-08-06T02:29:56;1.60;;;1.38;;
29550;SDS011;16488;52.396;10.696;2022-08-06T02:32:25;2.45;;;1.60;;
29550;SDS011;16488;52.396;10.696;2022-08-06T02:34:51;4.45;;;1.88;;
29550;SDS011;16488;52.396;10.696;2022-08-06T02:37:23;2.28;;;1.55;;
29550;SDS011;16488;52.396;10.696;2022-08-06T02:40:02;3.03;;;1.40;;
29550;SDS011;16488;52.396;10.696;2022-08-06T02:42:43;6.18;;;1.63;;
29550;SDS011;16488;52.396;10.696;2022-08-06T02:45:19;2.70;;;1.63;;
29550;SDS011;16488;52.396;10.696;2022-08-06T02:50:23;3.05;;;1.80;;
29550;SDS011;16488;52.396;10.696;2022-08-06T02:52:58;2.85;;;1.60;;
29550;SDS011;16488;52.396;10.696;2022-08-06T02:55:29;4.70;;;2.10;;
29550;SDS011;16488;52.396;10.696;2022-08-06T02:58:00;2.58;;;1.95;;
29550;SDS011;16488;52.396;10.696;2022-08-06T03:00:33;8.23;;;2.60;;
29550;SDS011;16488;52.396;10.696;2022-08-06T03:03:02;3.10;;;1.80;;
29550;SDS011;16488;52.396;10.696;2022-08-06T03:05:29;3.45;;;1.70;;
29550;SDS011;16488;52.396;10.696;2022-08-06T03:07:55;7.90;;;2.30;;
29550;SDS011;16488;52.396;10.696;2022-08-06T03:10:24;7.13;;;1.85;;
29550;SDS011;16488;52.396;10.696;2022-08-06T03:12:51;4.65;;;1.75;;
29550;SDS011;16488;52.396;10.696;2022-08-06T03:15:18;2.85;;;2.35;;
29550;SDS011;16488;52.396;10.696;2022-08-06T03:17:45;3.80;;;2.00;;
29550;SDS011;16488;52.396;10.696;2022-08-06T03:20:12;4.45;;;1.60;;
29550;SDS011;16488;52.396;10.696;2022-08-06T03:22:41;2.95;;;2.00;;
29550;SDS011;16488;52.396;10.696;2022-08-06T03:25:08;4.78;;;1.60;;
29550;SDS011;16488;52.396;10.696;2022-08-06T03:27:36;3.53;;;1.98;;
29550;SDS011;16488;52.396;10.696;2022-08-06T03:30:03;1.85;;;1.65;;
29550;SDS011;16488;52.396;10.696;2022-08-06T03:34:56;7.40;;;2.23;;
29550;SDS011;16488;52.396;10.696;2022-08-06T03:37:23;6.88;;;2.15;;
29550;SDS011;16488;52.396;10.696;2022-08-06T03:39:49;2.45;;;1.98;;
29550;SDS011;16488;52.396;10.696;2022-08-06T03:42:16;3.33;;;1.92;;
29550;SDS011;16488;52.396;10.696;2022-08-06T03:44:42;3.15;;;1.70;;
29550;SDS011;16488;52.396;10.696;2022-08-06T03:49:40;2.42;;;2.20;;
29550;SDS011;16488;52.396;10.696;2022-08-06T03:52:23;3.38;;;2.05;;
29550;SDS011;16488;52.396;10.696;2022-08-06T03:54:53;2.10;;;1.90;;
29550;SDS011;16488;52.396;10.696;2022-08-06T03:57:26;7.70;;;1.98;;
29550;SDS011;16488;52.396;10.696;2022-08-06T03:59:59;2.47;;;2.20;;
29550;SDS011;16488;52.396;10.696;2022-08-06T04:02:30;3.95;;;1.95;;
29550;SDS011;16488;52.396;10.696;2022-08-06T04:05:01;3.85;;;2.10;;
29550;SDS011;16488;52.396;10.696;2022-08-06T04:07:27;3.10;;;2.22;;
29550;SDS011;16488;52.396;10.696;2022-08-06T04:09:55;4.63;;;2.10;;
29550;SDS011;16488;52.396;10.696;2022-08-06T04:12:21;2.00;;;1.77;;
29550;SDS011;16488;52.396;10.696;2022-08-06T04:14:48;3.92;;;1.80;;
29550;SDS011;16488;52.396;10.696;2022-08-06T04:17:15;9.23;;;2.20;;
29550;SDS011;16488;52.396;10.696;2022-08-06T04:22:07;3.65;;;2.03;;
29550;SDS011;16488;52.396;10.696;2022-08-06T04:24:33;4.20;;;2.15;;
29550;SDS011;16488;52.396;10.696;2022-08-06T04:27:00;2.92;;;1.73;;
29550;SDS011;16488;52.396;10.696;2022-08-06T04:29:29;3.38;;;2.00;;
29550;SDS011;16488;52.396;10.696;2022-08-06T04:31:57;3.33;;;2.65;;
29550;SDS011;16488;52.396;10.696;2022-08-06T04:34:24;6.50;;;2.38;;
29550;SDS011;16488;52.396;10.696;2022-08-06T04:36:51;6.15;;;2.20;;
29550;SDS011;16488;52.396;10.696;2022-08-06T04:39:18;8.32;;;2.05;;
29550;SDS011;16488;52.396;10.696;2022-08-06T04:41:45;5.95;;;2.55;;
29550;SDS011;16488;52.396;10.696;2022-08-06T04:44:11;2.90;;;2.10;;
29550;SDS011;16488;52.396;10.696;2022-08-06T04:46:37;2.33;;;2.08;;
29550;SDS011;16488;52.396;10.696;2022-08-06T04:49:04;3.55;;;2.10;;
29550;SDS011;16488;52.396;10.696;2022-08-06T04:51:29;9.73;;;2.17;;
29550;SDS011;16488;52.396;10.696;2022-08-06T04:53:55;2.33;;;1.85;;
29550;SDS011;16488;52.396;10.696;2022-08-06T04:58:47;2.38;;;2.17;;
29550;SDS011;16488;52.396;10.696;2022-08-06T05:01:12;6.15;;;2.45;;
29550;SDS011;16488;52.396;10.696;2022-08-06T05:03:38;3.75;;;2.25;;
29550;SDS011;16488;52.396;10.696;2022-08-06T05:06:13;3.45;;;2.35;;
29550;SDS011;16488;52.396;10.696;2022-08-06T05:08:48;4.63;;;2.28;;
29550;SDS011;16488;52.396;10.696;2022-08-06T05:13:46;10.38;;;2.47;;
29550;SDS011;16488;52.396;10.696;2022-08-06T05:16:22;5.70;;;2.78;;
29550;SDS011;16488;52.396;10.696;2022-08-06T05:18:53;4.93;;;2.47;;
29550;SDS011;16488;52.396;10.696;2022-08-06T05:21:24;4.28;;;2.15;;
29550;SDS011;16488;52.396;10.696;2022-08-06T05:23:53;4.72;;;2.20;;
29550;SDS011;16488;52.396;10.696;2022-08-06T05:26:20;4.45;;;2.13;;
29550;SDS011;16488;52.396;10.696;2022-08-06T05:28:46;4.35;;;2.30;;
29550;SDS011;16488;52.396;10.696;2022-08-06T05:31:11;4.57;;;1.97;;
29550;SDS011;16488;52.396;10.696;2022-08-06T05:33:38;3.28;;;2.10;;
29550;SDS011;16488;52.396;10.696;2022-08-06T05:36:11;5.28;;;2.60;;
29550;SDS011;16488;52.396;10.696;2022-08-06T05:38:38;5.28;;;2.28;;
29550;SDS011;16488;52.396;10.696;2022-08-06T05:41:08;4.07;;;1.98;;
29550;SDS011;16488;52.396;10.696;2022-08-06T05:43:35;3.92;;;2.13;;
29550;SDS011;16488;52.396;10.696;2022-08-06T05:46:03;3.25;;;2.00;;
29550;SDS011;16488;52.396;10.696;2022-08-06T05:48:35;6.10;;;1.92;;
29550;SDS011;16488;52.396;10.696;2022-08-06T05:51:07;8.50;;;2.30;;
29550;SDS011;16488;52.396;10.696;2022-08-06T05:53:39;6.32;;;2.33;;
29550;SDS011;16488;52.396;10.696;2022-08-06T05:56:12;6.38;;;1.80;;
29550;SDS011;16488;52.396;10.696;2022-08-06T05:58:47;3.88;;;1.73;;
29550;SDS011;16488;52.396;10.696;2022-08-06T06:01:16;3.80;;;1.52;;
29550;SDS011;16488;52.396;10.696;2022-08-06T06:03:42;6.63;;;2.10;;
29550;SDS011;16488;52.396;10.696;2022-08-06T06:06:09;3.08;;;2.15;;
29550;SDS011;16488;52.396;10.696;2022-08-06T06:08:36;6.03;;;1.48;;
29550;SDS011;16488;52.396;10.696;2022-08-06T06:11:02;3.17;;;1.85;;
29550;SDS011;16488;52.396;10.696;2022-08-06T06:13:29;2.25;;;1.40;;
29550;SDS011;16488;52.396;10.696;2022-08-06T06:15:58;6.15;;;1.52;;
29550;SDS011;16488;52.396;10.696;2022-08-06T06:18:53;3.67;;;1.52;;
29550;SDS011;16488;52.396;10.696;2022-08-06T06:23:56;4.70;;;1.70;;
29550;SDS011;16488;52.396;10.696;2022-08-06T06:26:45;4.60;;;1.58;;
29550;SDS011;16488;52.396;10.696;2022-08-06T06:29:37;2.47;;;1.35;;
29550;SDS011;16488;52.396;10.696;2022-08-06T06:32:13;4.07;;;1.55;;
29550;SDS011;16488;52.396;10.696;2022-08-06T06:34:47;5.63;;;1.48;;
29550;SDS011;16488;52.396;10.696;2022-08-06T06:43:18;3.85;;;1.73;;
29550;SDS011;16488;52.396;10.696;2022-08-06T06:45:54;3.15;;;1.55;;
29550;SDS011;16488;52.396;10.696;2022-08-06T06:48:42;2.85;;;1.25;;
29550;SDS011;16488;52.396;10.696;2022-08-06T06:51:14;4.65;;;1.30;;
29550;SDS011;16488;52.396;10.696;2022-08-06T06:54:05;2.08;;;0.98;;
29550;SDS011;16488;52.396;10.696;2022-08-06T06:56:35;3.95;;;1.48;;
29550;SDS011;16488;52.396;10.696;2022-08-06T06:59:08;3.28;;;1.42;;
29550;SDS011;16488;52.396;10.696;2022-08-06T07:01:39;2.55;;;1.13;;
29550;SDS011;16488;52.396;10.696;2022-08-06T07:04:08;5.45;;;1.20;;
29550;SDS011;16488;52.396;10.696;2022-08-06T07:06:36;4.68;;;1.60;;
29550;SDS011;16488;52.396;10.696;2022-08-06T07:09:03;4.00;;;1.25;;
29550;SDS011;16488;52.396;10.696;2022-08-06T07:11:31;2.75;;;1.00;;
29550;SDS011;16488;52.396;10.696;2022-08-06T07:13:58;4.20;;;1.40;;
29550;SDS011;16488;52.396;10.696;2022-08-06T07:16:26;3.78;;;1.48;;
29550;SDS011;16488;52.396;10.696;2022-08-06T07:18:53;3.80;;;1.35;;
29550;SDS011;16488;52.396;10.696;2022-08-06T07:21:20;8.82;;;1.58;;
29550;SDS011;16488;52.396;10.696;2022-08-06T07:23:48;1.85;;;1.13;;
29550;SDS011;16488;52.396;10.696;2022-08-06T07:26:17;6.07;;;1.23;;
29550;SDS011;16488;52.396;10.696;2022-08-06T07:28:46;1.88;;;1.00;;
29550;SDS011;16488;52.396;10.696;2022-08-06T07:31:12;3.60;;;1.17;;
29550;SDS011;16488;52.396;10.696;2022-08-06T07:33:41;2.95;;;0.82;;
29550;SDS011;16488;52.396;10.696;2022-08-06T07:36:09;1.50;;;0.80;;
29550;SDS011;16488;52.396;10.696;2022-08-06T07:38:37;3.22;;;1.10;;
29550;SDS011;16488;52.396;10.696;2022-08-06T07:41:06;5.25;;;1.00;;
29550;SDS011;16488;52.396;10.696;2022-08-06T07:43:38;9.32;;;0.68;;
29550;SDS011;16488;52.396;10.696;2022-08-06T07:46:11;4.03;;;1.20;;
29550;SDS011;16488;52.396;10.696;2022-08-06T07:48:40;3.97;;;0.80;;
29550;SDS011;16488;52.396;10.696;2022-08-06T07:51:13;0.68;;;0.60;;
29550;SDS011;16488;52.396;10.696;2022-08-06T07:53:39;10.77;;;1.10;;
29550;SDS011;16488;52.396;10.696;2022-08-06T07:56:07;9.02;;;1.17;;
29550;SDS011;16488;52.396;10.696;2022-08-06T07:58:34;5.20;;;1.00;;
29550;SDS011;16488;52.396;10.696;2022-08-06T08:01:01;6.35;;;1.00;;
29550;SDS011;16488;52.396;10.696;2022-08-06T08:03:28;0.77;;;0.60;;
29550;SDS011;16488;52.396;10.696;2022-08-06T08:06:14;2.90;;;1.23;;
29550;SDS011;16488;52.396;10.696;2022-08-06T08:08:46;2.60;;;0.60;;
29550;SDS011;16488;52.396;10.696;2022-08-06T08:11:33;8.90;;;2.17;;
29550;SDS011;16488;52.396;10.696;2022-08-06T08:14:05;5.45;;;1.00;;
29550;SDS011;16488;52.396;10.696;2022-08-06T08:16:33;2.63;;;0.65;;
29550;SDS011;16488;52.396;10.696;2022-08-06T08:18:59;1.75;;;0.75;;
29550;SDS011;16488;52.396;10.696;2022-08-06T08:21:24;4.22;;;0.90;;
29550;SDS011;16488;52.396;10.696;2022-08-06T08:23:51;3.15;;;0.80;;
29550;SDS011;16488;52.396;10.696;2022-08-06T08:26:17;1.35;;;0.68;;
29550;SDS011;16488;52.396;10.696;2022-08-06T08:28:43;3.45;;;0.90;;
29550;SDS011;16488;52.396;10.696;2022-08-06T08:31:08;2.80;;;0.93;;
29550;SDS011;16488;52.396;10.696;2022-08-06T08:33:36;3.22;;;0.63;;
29550;SDS011;16488;52.396;10.696;2022-08-06T08:36:02;1.85;;;0.68;;
29550;SDS011;16488;52.396;10.696;2022-08-06T08:38:31;4.72;;;1.05;;
29550;SDS011;16488;52.396;10.696;2022-08-06T08:41:08;3.25;;;1.30;;
29550;SDS011;16488;52.396;10.696;2022-08-06T08:43:43;5.65;;;1.02;;
29550;SDS011;16488;52.396;10.696;2022-08-06T08:46:13;2.65;;;0.60;;
29550;SDS011;16488;52.396;10.696;2022-08-06T08:48:40;2.60;;;0.77;;
29550;SDS011;16488;52.396;10.696;2022-08-06T08:51:08;2.67;;;0.60;;
29550;SDS011;16488;52.396;10.696;2022-08-06T08:53:36;1.35;;;0.50;;
29550;SDS011;16488;52.396;10.696;2022-08-06T08:56:07;2.28;;;0.50;;
29550;SDS011;16488;52.396;10.696;2022-08-06T08:58:33;2.45;;;0.68;;
29550;SDS011;16488;52.396;10.696;2022-08-06T09:01:02;3.35;;;0.55;;
29550;SDS011;16488;52.396;10.696;2022-08-06T09:03:32;1.88;;;0.70;;
29550;SDS011;16488;52.396;10.696;2022-08-06T09:06:00;3.72;;;0.70;;
29550;SDS011;16488;52.396;10.696;2022-08-06T09:08:26;5.03;;;0.80;;
29550;SDS011;16488;52.396;10.696;2022-08-06T09:10:52;2.10;;;0.63;;
29550;SDS011;16488;52.396;10.696;2022-08-06T09:13:18;1.55;;;0.60;;
29550;SDS011;16488;52.396;10.696;2022-08-06T09:22:28;4.07;;;0.60;;
29550;SDS011;16488;52.396;10.696;2022-08-06T09:24:54;5.32;;;0.82;;
29550;SDS011;16488;52.396;10.696;2022-08-06T09:27:20;5.07;;;0.50;;
29550;SDS011;16488;52.396;10.696;2022-08-06T09:35:27;1.33;;;0.57;;
29550;SDS011;16488;52.396;10.696;2022-08-06T09:38:01;1.03;;;0.50;;
29550;SDS011;16488;52.396;10.696;2022-08-06T09:40:33;1.40;;;0.90;;
29550;SDS011;16488;52.396;10.696;2022-08-06T09:42:58;0.85;;;0.40;;
29550;SDS011;16488;52.396;10.696;2022-08-06T09:45:25;1.15;;;0.50;;
29550;SDS011;16488;52.396;10.696;2022-08-06T09:50:37;1.75;;;0.47;;
29550;SDS011;16488;52.396;10.696;2022-08-06T09:55:32;1.45;;;0.55;;
29550;SDS011;16488;52.396;10.696;2022-08-06T09:57:58;3.00;;;0.77;;
29550;SDS011;16488;52.396;10.696;2022-08-06T10:03:28;4.80;;;0.75;;
29550;SDS011;16488;52.396;10.696;2022-08-06T10:06:05;1.77;;;0.47;;
29550;SDS011;16488;52.396;10.696;2022-08-06T10:08:38;2.22;;;0.57;;
29550;SDS011;16488;52.396;10.696;2022-08-06T10:11:05;2.65;;;0.45;;
29550;SDS011;16488;52.396;10.696;2022-08-06T10:13:31;2.92;;;0.47;;
29550;SDS011;16488;52.396;10.696;2022-08-06T10:18:39;1.33;;;0.40;;
29550;SDS011;16488;52.396;10.696;2022-08-06T10:21:07;2.80;;;0.90;;
29550;SDS011;16488;52.396;10.696;2022-08-06T10:23:36;4.15;;;0.75;;
29550;SDS011;16488;52.396;10.696;2022-08-06T10:26:12;4.53;;;0.40;;
29550;SDS011;16488;52.396;10.696;2022-08-06T10:28:39;2.90;;;0.52;;
29550;SDS011;16488;52.396;10.696;2022-08-06T10:31:09;3.25;;;0.80;;
29550;SDS011;16488;52.396;10.696;2022-08-06T10:33:40;3.10;;;0.50;;
29550;SDS011;16488;52.396;10.696;2022-08-06T10:36:16;1.80;;;0.52;;
29550;SDS011;16488;52.396;10.696;2022-08-06T10:38:46;1.98;;;0.60;;
29550;SDS011;16488;52.396;10.696;2022-08-06T10:41:15;0.93;;;0.70;;
29550;SDS011;16488;52.396;10.696;2022-08-06T10:43:42;0.95;;;0.40;;
29550;SDS011;16488;52.396;10.696;2022-08-06T10:46:09;1.33;;;0.70;;
29550;SDS011;16488;52.396;10.696;2022-08-06T10:48:39;4.57;;;0.47;;
29550;SDS011;16488;52.396;10.696;2022-08-06T10:51:07;2.17;;;0.77;;
29550;SDS011;16488;52.396;10.696;2022-08-06T10:53:35;2.42;;;0.57;;
29550;SDS011;16488;52.396;10.696;2022-08-06T10:56:02;1.50;;;0.80;;
29550;SDS011;16488;52.396;10.696;2022-08-06T10:58:30;2.83;;;0.40;;
29550;SDS011;16488;52.396;10.696;2022-08-06T11:00:57;1.48;;;0.60;;
29550;SDS011;16488;52.396;10.696;2022-08-06T11:11:38;7.03;;;0.95;;
29550;SDS011;16488;52.396;10.696;2022-08-06T11:14:26;3.40;;;0.40;;
29550;SDS011;16488;52.396;10.696;2022-08-06T11:16:56;5.78;;;0.50;;
29550;SDS011;16488;52.396;10.696;2022-08-06T11:19:42;3.90;;;0.55;;
29550;SDS011;16488;52.396;10.696;2022-08-06T11:24:57;1.30;;;0.60;;
29550;SDS011;16488;52.396;10.696;2022-08-06T11:30:18;1.85;;;0.40;;
29550;SDS011;16488;52.396;10.696;2022-08-06T11:32:46;1.38;;;0.30;;
29550;SDS011;16488;52.396;10.696;2022-08-06T11:37:58;5.63;;;1.70;;
29550;SDS011;16488;52.396;10.696;2022-08-06T11:40:57;2.40;;;0.60;;
29550;SDS011;16488;52.396;10.696;2022-08-06T11:46:17;4.68;;;0.63;;
29550;SDS011;16488;52.396;10.696;2022-08-06T11:54:28;2.28;;;0.43;;
29550;SDS011;16488;52.396;10.696;2022-08-06T11:59:24;2.08;;;0.38;;
29550;SDS011;16488;52.396;10.696;2022-08-06T12:01:50;0.85;;;0.38;;
29550;SDS011;16488;52.396;10.696;2022-08-06T12:12:32;1.00;;;0.47;;
29550;SDS011;16488;52.396;10.696;2022-08-06T12:17:40;1.35;;;0.30;;
29550;SDS011;16488;52.396;10.696;2022-08-06T12:20:07;1.30;;;0.47;;
29550;SDS011;16488;52.396;10.696;2022-08-06T12:22:34;2.78;;;0.85;;
29550;SDS011;16488;52.396;10.696;2022-08-06T12:25:02;2.55;;;0.55;;
29550;SDS011;16488;52.396;10.696;2022-08-06T12:27:31;2.92;;;0.38;;
29550;SDS011;16488;52.396;10.696;2022-08-06T12:30:01;3.88;;;0.75;;
29550;SDS011;16488;52.396;10.696;2022-08-06T12:32:29;1.35;;;0.47;;
29550;SDS011;16488;52.396;10.696;2022-08-06T12:35:00;0.38;;;0.30;;
29550;SDS011;16488;52.396;10.696;2022-08-06T12:37:35;9.75;;;0.63;;
29550;SDS011;16488;52.396;10.696;2022-08-06T12:40:03;2.67;;;0.30;;
29550;SDS011;16488;52.396;10.696;2022-08-06T12:42:51;1.20;;;0.40;;
29550;SDS011;16488;52.396;10.696;2022-08-06T12:45:21;3.08;;;0.40;;
29550;SDS011;16488;52.396;10.696;2022-08-06T12:47:57;1.05;;;0.38;;
29550;SDS011;16488;52.396;10.696;2022-08-06T12:50:30;2.65;;;0.40;;
29550;SDS011;16488;52.396;10.696;2022-08-06T12:55:30;4.72;;;0.40;;
29550;SDS011;16488;52.396;10.696;2022-08-06T12:57:57;0.20;;;0.20;;
29550;SDS011;16488;52.396;10.696;2022-08-06T13:00:24;1.65;;;0.43;;
29550;SDS011;16488;52.396;10.696;2022-08-06T13:05:16;1.65;;;0.40;;
29550;SDS011;16488;52.396;10.696;2022-08-06T13:07:43;1.73;;;0.38;;
29550;SDS011;16488;52.396;10.696;2022-08-06T13:10:10;0.80;;;0.32;;
29550;SDS011;16488;52.396;10.696;2022-08-06T13:12:36;0.30;;;0.20;;
29550;SDS011;16488;52.396;10.696;2022-08-06T13:15:10;0.50;;;0.40;;
29550;SDS011;16488;52.396;10.696;2022-08-06T13:17:37;1.17;;;0.30;;
29550;SDS011;16488;52.396;10.696;2022-08-06T13:20:03;0.88;;;0.40;;
29550;SDS011;16488;52.396;10.696;2022-08-06T13:25:11;1.65;;;0.40;;
29550;SDS011;16488;52.396;10.696;2022-08-06T13:27:38;2.97;;;0.40;;
29550;SDS011;16488;52.396;10.696;2022-08-06T13:30:05;0.68;;;0.35;;
29550;SDS011;16488;52.396;10.696;2022-08-06T13:32:32;1.17;;;0.30;;
29550;SDS011;16488;52.396;10.696;2022-08-06T13:35:00;0.40;;;0.30;;
29550;SDS011;16488;52.396;10.696;2022-08-06T13:37:40;1.02;;;0.50;;
29550;SDS011;16488;52.396;10.696;2022-08-06T13:40:17;0.90;;;0.40;;
29550;SDS011;16488;52.396;10.696;2022-08-06T13:42:50;1.27;;;0.30;;
29550;SDS011;16488;52.396;10.696;2022-08-06T13:45:18;2.30;;;0.50;;
29550;SDS011;16488;52.396;10.696;2022-08-06T13:47:45;1.00;;;0.10;;
29550;SDS011;16488;52.396;10.696;2022-08-06T13:50:16;0.57;;;0.20;;
29550;SDS011;16488;52.396;10.696;2022-08-06T13:52:42;3.30;;;0.40;;
29550;SDS011;16488;52.396;10.696;2022-08-06T13:55:08;3.42;;;0.60;;
29550;SDS011;16488;52.396;10.696;2022-08-06T13:57:33;0.60;;;0.60;;
29550;SDS011;16488;52.396;10.696;2022-08-06T14:00:00;0.20;;;0.20;;
29550;SDS011;16488;52.396;10.696;2022-08-06T14:02:32;1.08;;;0.30;;
29550;SDS011;16488;52.396;10.696;2022-08-06T14:04:58;2.38;;;0.40;;
29550;SDS011;16488;52.396;10.696;2022-08-06T14:07:24;0.65;;;0.20;;
29550;SDS011;16488;52.396;10.696;2022-08-06T14:09:50;0.85;;;0.35;;
29550;SDS011;16488;52.396;10.696;2022-08-06T14:12:15;0.20;;;0.20;;
29550;SDS011;16488;52.396;10.696;2022-08-06T14:14:41;1.00;;;0.40;;
29550;SDS011;16488;52.396;10.696;2022-08-06T14:17:06;1.45;;;0.40;;
29550;SDS011;16488;52.396;10.696;2022-08-06T14:19:32;2.57;;;0.33;;
29550;SDS011;16488;52.396;10.696;2022-08-06T14:21:57;0.45;;;0.20;;
29550;SDS011;16488;52.396;10.696;2022-08-06T14:24:23;1.60;;;0.40;;
29550;SDS011;16488;52.396;10.696;2022-08-06T14:26:49;0.60;;;0.40;;
29550;SDS011;16488;52.396;10.696;2022-08-06T14:29:15;7.40;;;1.42;;
29550;SDS011;16488;52.396;10.696;2022-08-06T14:31:40;1.15;;;0.20;;
29550;SDS011;16488;52.396;10.696;2022-08-06T14:34:06;1.60;;;0.50;;
29550;SDS011;16488;52.396;10.696;2022-08-06T14:36:32;1.73;;;0.40;;
29550;SDS011;16488;52.396;10.696;2022-08-06T14:38:58;0.27;;;0.23;;
29550;SDS011;16488;52.396;10.696;2022-08-06T14:41:23;1.02;;;0.43;;
29550;SDS011;16488;52.396;10.696;2022-08-06T14:44:09;1.33;;;0.40;;
29550;SDS011;16488;52.396;10.696;2022-08-06T14:46:54;0.40;;;0.22;;
29550;SDS011;16488;52.396;10.696;2022-08-06T14:49:21;1.83;;;0.40;;
29550;SDS011;16488;52.396;10.696;2022-08-06T14:51:47;1.17;;;0.50;;
29550;SDS011;16488;52.396;10.696;2022-08-06T14:54:13;3.40;;;0.35;;
29550;SDS011;16488;52.396;10.696;2022-08-06T14:56:39;0.80;;;0.60;;
29550;SDS011;16488;52.396;10.696;2022-08-06T14:59:06;0.65;;;0.30;;
29550;SDS011;16488;52.396;10.696;2022-08-06T15:01:31;0.93;;;0.50;;
29550;SDS011;16488;52.396;10.696;2022-08-06T15:03:57;1.92;;;0.35;;
29550;SDS011;16488;52.396;10.696;2022-08-06T15:06:22;0.20;;;0.20;;
29550;SDS011;16488;52.396;10.696;2022-08-06T15:08:48;3.33;;;0.50;;
29550;SDS011;16488;52.396;10.696;2022-08-06T15:11:13;0.83;;;0.30;;
29550;SDS011;16488;52.396;10.696;2022-08-06T15:13:39;2.33;;;0.50;;
29550;SDS011;16488;52.396;10.696;2022-08-06T15:16:05;2.05;;;0.50;;
29550;SDS011;16488;52.396;10.696;2022-08-06T15:18:34;1.10;;;0.15;;
29550;SDS011;16488;52.396;10.696;2022-08-06T15:20:59;0.25;;;0.20;;
29550;SDS011;16488;52.396;10.696;2022-08-06T15:23:25;0.38;;;0.30;;
29550;SDS011;16488;52.396;10.696;2022-08-06T15:25:52;0.38;;;0.22;;
29550;SDS011;16488;52.396;10.696;2022-08-06T15:28:17;1.33;;;0.30;;
29550;SDS011;16488;52.396;10.696;2022-08-06T15:30:43;5.73;;;0.37;;
29550;SDS011;16488;52.396;10.696;2022-08-06T15:33:09;1.13;;;0.20;;
29550;SDS011;16488;52.396;10.696;2022-08-06T15:35:35;1.73;;;0.30;;
29550;SDS011;16488;52.396;10.696;2022-08-06T15:38:00;0.20;;;0.20;;
29550;SDS011;16488;52.396;10.696;2022-08-06T15:40:26;4.17;;;0.50;;
29550;SDS011;16488;52.396;10.696;2022-08-06T15:42:52;2.90;;;0.40;;
29550;SDS011;16488;52.396;10.696;2022-08-06T15:45:17;3.88;;;0.32;;
29550;SDS011;16488;52.396;10.696;2022-08-06T15:47:45;6.38;;;0.30;;
29550;SDS011;16488;52.396;10.696;2022-08-06T15:50:10;3.40;;;0.50;;
29550;SDS011;16488;52.396;10.696;2022-08-06T15:52:36;0.52;;;0.20;;
29550;SDS011;16488;52.396;10.696;2022-08-06T15:55:02;3.10;;;0.35;;
29550;SDS011;16488;52.396;10.696;2022-08-06T15:57:29;10.30;;;2.13;;
29550;SDS011;16488;52.396;10.696;2022-08-06T15:59:54;1.58;;;0.30;;
29550;SDS011;16488;52.396;10.696;2022-08-06T16:02:20;0.52;;;0.30;;
29550;SDS011;16488;52.396;10.696;2022-08-06T16:04:46;1.83;;;0.40;;
29550;SDS011;16488;52.396;10.696;2022-08-06T16:09:38;1.02;;;0.32;;
29550;SDS011;16488;52.396;10.696;2022-08-06T16:12:05;0.95;;;0.30;;
29550;SDS011;16488;52.396;10.696;2022-08-06T16:14:31;1.73;;;0.50;;
29550;SDS011;16488;52.396;10.696;2022-08-06T16:16:57;1.33;;;0.30;;
29550;SDS011;16488;52.396;10.696;2022-08-06T16:19:22;0.75;;;0.30;;
29550;SDS011;16488;52.396;10.696;2022-08-06T16:21:48;1.90;;;0.40;;
29550;SDS011;16488;52.396;10.696;2022-08-06T16:24:15;0.32;;;0.32;;
29550;SDS011;16488;52.396;10.696;2022-08-06T16:26:41;1.00;;;0.30;;
29550;SDS011;16488;52.396;10.696;2022-08-06T16:29:07;0.63;;;0.30;;
29550;SDS011;16488;52.396;10.696;2022-08-06T16:31:33;1.38;;;0.47;;